»·PEaware :: SWA479 KBUR-KSFO

SWA479 :: KBUR-KSFO

FLIGHT INFORMATION

Flight Status: Arrived
Operator:
Southwest Airlines
More flights by this operator :: More flights under this callsign
Pilot: Ben F. (13029)
Aircraft: BOEING 737-300
(B733)
More flights by this aircraft type
Origin: KBUR Bob Hope-Burbank
United States
Destination: KSFO San Francisco Intl
United States
More flights between these airports :: More routes between these airports
Route: OROSZ2 COREZ MAKRS SERFR SERFR3
File this flight plan on PilotEdge
Remarks: RMK / SIMBRIEF
Altitude:
(Current/Filed)
36,000ft
Speed:
(Current/Filed)
439kts
Departed: 19-May-19 11:41 AM
Arrived: 19-May-19 12:39 PM
Distance/Time
Traveled:
283nm/0:58
Distance/Time
To Go:
Arrived

Flight Plot

Page will automatically refresh every two minutes.

Flight plan parsing failed; only flown route is shown


Map Options




Map Legend


Flown Route
Filed Route
Departure Airport
Arrival Airport
Navaid (VOR, NDB)
Fix

Horizontal Profiles

Position Reports

Time Latitude Longitude Heading Altitude Ground
Speed
19-May-19 11:12 34.196748 -118.354781 176 784ft 0kts
19-May-19 11:13 34.196748 -118.354781 176 784ft 0kts
19-May-19 11:13 34.196748 -118.354781 176 784ft 0kts
19-May-19 11:14 34.196748 -118.354781 176 784ft 0kts
19-May-19 11:16 34.196748 -118.354781 176 784ft 0kts
19-May-19 11:16 34.196748 -118.354781 176 784ft 0kts
19-May-19 11:17 34.196748 -118.354781 176 784ft 0kts
19-May-19 11:18 34.196748 -118.354781 176 784ft 0kts
19-May-19 11:19 34.196748 -118.354781 176 784ft 0kts
19-May-19 11:20 34.196748 -118.354781 176 784ft 0kts
19-May-19 11:21 34.196748 -118.354781 176 784ft 0kts
19-May-19 11:22 34.196748 -118.354781 176 784ft 0kts
19-May-19 11:23 34.196748 -118.354781 176 784ft 0kts
19-May-19 11:24 34.196748 -118.354781 176 784ft 0kts
19-May-19 11:25 34.196748 -118.354781 176 784ft 0kts
19-May-19 11:26 34.196748 -118.354781 176 784ft 0kts
19-May-19 11:27 34.196748 -118.354781 176 784ft 0kts
19-May-19 11:28 34.196748 -118.354781 176 784ft 0kts
19-May-19 11:29 34.196748 -118.354781 176 784ft 0kts
19-May-19 11:30 34.196752 -118.354782 177 784ft 1kts
19-May-19 11:31 34.197198 -118.354423 261 784ft 2kts
19-May-19 11:32 34.197201 -118.354287 271 784ft 0kts
19-May-19 11:33 34.197201 -118.354287 271 784ft 0kts
19-May-19 11:34 34.197201 -118.354287 271 784ft 0kts
19-May-19 11:35 34.199533 -118.355549 348 784ft 15kts
19-May-19 11:36 34.204664 -118.356985 347 784ft 22kts
19-May-19 11:37 34.211343 -118.358857 335 784ft 16kts
19-May-19 11:38 34.211548 -118.359027 310 784ft 0kts
19-May-19 11:39 34.211838 -118.359993 257 784ft 9kts
19-May-19 11:40 34.202615 -118.357776 166 784ft 128kts
19-May-19 11:41 34.162769 -118.380679 222 2768ft 190kts
19-May-19 11:42 34.120485 -118.432174 222 4012ft 259kts
19-May-19 11:43 34.118774 -118.509562 325 5259ft 286kts
19-May-19 11:44 34.191361 -118.543053 328 8363ft 293kts
19-May-19 11:45 34.267057 -118.587201 330 10722ft 330kts
19-May-19 11:46 34.352645 -118.633488 330 13738ft 339kts
19-May-19 11:47 34.438756 -118.682248 322 16359ft 346kts
19-May-19 11:48 34.523143 -118.742097 321 18816ft 356kts
19-May-19 11:49 34.610159 -118.803714 321 21030ft 366kts
19-May-19 11:50 34.699224 -118.866874 320 23187ft 372kts
19-May-19 11:51 34.790053 -118.931444 320 25156ft 378kts
19-May-19 11:52 34.881835 -118.996838 320 26928ft 384kts
19-May-19 11:53 34.976006 -119.064140 322 28273ft 396kts
19-May-19 11:54 35.071696 -119.132999 323 29807ft 400kts
19-May-19 11:55 35.167438 -119.201575 323 31541ft 393kts
19-May-19 11:56 35.261081 -119.268999 323 32935ft 388kts
19-May-19 11:57 35.353830 -119.335981 322 34108ft 384kts
19-May-19 11:58 35.445701 -119.402507 322 35002ft 383kts
19-May-19 11:59 35.537302 -119.469027 321 35749ft 381kts
19-May-19 12:00 35.583383 -119.576170 286 35946ft 364kts
19-May-19 12:01 35.615884 -119.694170 286 35961ft 367kts
19-May-19 12:02 35.649016 -119.812875 287 35962ft 366kts
19-May-19 12:03 35.682122 -119.931801 287 35952ft 366kts
19-May-19 12:04 35.715203 -120.051157 286 35944ft 366kts
19-May-19 12:05 35.748000 -120.170027 286 35943ft 366kts
19-May-19 12:06 35.780821 -120.289524 286 35947ft 366kts
19-May-19 12:07 35.813467 -120.408905 287 35947ft 366kts
19-May-19 12:08 35.845970 -120.528293 286 35947ft 366kts
19-May-19 12:09 35.878274 -120.647480 286 35947ft 366kts
19-May-19 12:10 35.910064 -120.765527 286 35948ft 366kts
19-May-19 12:11 35.942201 -120.885179 286 35966ft 366kts
19-May-19 12:12 35.974279 -121.005133 286 35969ft 365kts
19-May-19 12:13 36.005644 -121.122940 287 35962ft 358kts
19-May-19 12:14 36.036762 -121.240343 288 35956ft 355kts
19-May-19 12:15 36.069039 -121.355871 301 35936ft 356kts
19-May-19 12:16 36.150530 -121.428721 322 35207ft 366kts
19-May-19 12:17 36.236769 -121.495651 322 32258ft 363kts
19-May-19 12:18 36.321821 -121.562224 322 29610ft 372kts
19-May-19 12:19 36.411073 -121.632201 322 26992ft 375kts
19-May-19 12:20 36.497699 -121.700580 321 25047ft 364kts
19-May-19 12:21 36.582103 -121.767586 322 22678ft 363kts
19-May-19 12:22 36.664544 -121.832833 322 20077ft 344kts
19-May-19 12:23 36.739687 -121.891460 327 19514ft 293kts
19-May-19 12:24 36.829664 -121.918919 341 15942ft 339kts
19-May-19 12:25 36.921554 -121.944331 341 15012ft 334kts
19-May-19 12:26 37.011563 -121.976144 337 14506ft 335kts
19-May-19 12:27 37.099373 -122.010440 338 12398ft 324kts
19-May-19 12:28 37.178802 -122.041325 338 11217ft 282kts
19-May-19 12:29 37.253802 -122.070686 338 10019ft 281kts
19-May-19 12:30 37.328421 -122.100144 339 8035ft 275kts
19-May-19 12:31 37.399409 -122.126679 342 6132ft 263kts
19-May-19 12:32 37.468912 -122.150025 341 5041ft 244kts
19-May-19 12:33 37.529571 -122.170899 332 3057ft 199kts
19-May-19 12:34 37.555108 -122.215975 296 2363ft 131kts
19-May-19 12:35 37.571694 -122.257700 298 1798ft 133kts
19-May-19 12:36 37.588947 -122.298680 298 1085ft 130kts
19-May-19 12:37 37.606089 -122.339430 298 404ft 131kts
19-May-19 12:38 37.619241 -122.370714 299 12ft 20kts
19-May-19 12:39 37.621613 -122.376528 292 23ft 8kts
19-May-19 12:40 37.622261 -122.382067 258 29ft 18kts
19-May-19 12:41 37.620339 -122.382371 179 30ft 7kts
19-May-19 12:42 37.618274 -122.381948 139 30ft 0kts
19-May-19 12:43 37.618274 -122.381948 139 30ft 0kts
19-May-19 12:44 37.618274 -122.381948 139 30ft 0kts
19-May-19 12:45 37.618274 -122.381948 139 30ft 0kts
19-May-19 12:46 37.618274 -122.381948 139 30ft 0kts
19-May-19 12:47 37.618274 -122.381948 139 30ft 0kts

Navigation Log

Ident Type
Flight plan parsing failed, navigation log unavailable